Time;durP1;ratioP1;P1;durP2;ratioP2;P2;SDS_P1;SDS_P2;PMS_P1;PMS_P2;Temp;Humidity;BMP_temperature;BMP_pressure;BME280_temperature;BME280_humidity;BME280_pressure;Samples;Min_cycle;Max_cycle;Signal;HPM_P1;HPM_P2
2021/08/25 07:10:08;;;;;;;;;10.00;10.00;;;;;28.78;56.43;101204.91;6213205;22;1534827;-77
2021/08/25 07:13:04;;;;;;;;;8.80;8.80;;;;;28.78;57.28;101213.44;6276838;22;8909;-77
2021/08/25 07:16:00;;;;;;;;;11.00;11.00;;;;;28.62;55.30;101207.75;6306716;22;8797;-77
2021/08/25 07:18:56;;;;;;;;;11.00;11.00;;;;;28.57;55.75;101213.94;6306086;22;8800;-75
2021/08/25 07:21:52;;;;;;;;;10.40;10.40;;;;;28.79;54.37;101215.03;6307112;22;8785;-79
2021/08/25 07:24:47;;;;;;;;;8.20;8.20;;;;;28.61;55.85;101217.53;6306822;22;8769;-79
2021/08/25 07:27:44;;;;;;;;;9.20;9.20;;;;;28.60;56.61;101208.19;6306806;22;8777;-76
2021/08/25 07:30:40;;;;;;;;;10.20;10.20;;;;;28.86;56.46;101200.63;6307562;22;8820;-81
2021/08/25 07:33:35;;;;;;;;;9.00;9.00;;;;;28.70;56.71;101198.59;6287973;22;8811;-79
2021/08/25 07:36:31;;;;;;;;;9.60;9.60;;;;;28.96;56.18;101199.59;6305100;22;9684;-80
2021/08/25 07:39:27;;;;;;;;;8.80;8.80;;;;;28.72;56.77;101186.75;6283428;22;8816;-78
2021/08/25 07:42:22;;;;;;;;;10.20;10.20;;;;;29.23;55.94;101195.66;6283144;22;8793;-78
2021/08/25 07:45:18;;;;;;;;;10.20;10.20;;;;;29.22;55.19;101194.06;6304764;22;8865;-79
2021/08/25 07:48:13;;;;;;;;;8.80;8.80;;;;;29.51;51.82;101203.41;6304568;22;8797;-78
2021/08/25 07:51:09;;;;;;;;;9.20;9.20;;;;;29.70;51.54;101195.97;6304880;22;8781;-78
2021/08/25 07:54:05;;;;;;;;;9.40;9.40;;;;;30.04;50.70;101186.81;6304608;22;8871;-78
2021/08/25 07:57:01;;;;;;;;;7.40;7.40;;;;;29.89;50.77;101183.59;6305282;22;8820;-81
2021/08/25 07:59:58;;;;;;;;;9.80;9.80;;;;;30.05;51.39;101188.41;6285831;22;8819;-80
2021/08/25 08:02:53;;;;;;;;;9.20;9.20;;;;;30.26;52.28;101192.69;6303026;22;8801;-78
2021/08/25 08:05:49;;;;;;;;;8.60;8.60;;;;;30.43;50.30;101204.78;6303798;22;8892;-88
2021/08/25 08:08:45;;;;;;;;;5.60;5.60;;;;;29.89;49.93;101202.75;6304508;22;8969;-79
2021/08/25 08:11:41;;;;;;;;;7.60;7.60;;;;;29.55;50.61;101197.63;6272639;22;9512;-90
2021/08/25 08:14:37;;;;;;;;;5.00;5.00;;;;;29.22;51.33;101197.69;6273727;22;8791;-77
2021/08/25 08:17:34;;;;;;;;;5.80;5.80;;;;;29.18;51.90;101196.19;6272221;22;8787;-77
2021/08/25 08:20:30;;;;;;;;;7.20;7.20;;;;;29.66;50.32;101195.28;6271906;22;8929;-78
2021/08/25 08:23:26;;;;;;;;;6.60;6.60;;;;;29.63;48.46;101193.34;6273991;22;8791;-77
2021/08/25 08:26:22;;;;;;;;;5.40;5.40;;;;;30.13;46.88;101189.81;6275931;22;8801;-78
2021/08/25 08:29:17;;;;;;;;;7.80;7.80;;;;;30.25;46.23;101199.66;6274056;22;8799;-85
2021/08/25 08:32:13;;;;;;;;;5.20;5.20;;;;;30.37;46.43;101200.94;6293287;22;8821;-81
2021/08/25 08:35:09;;;;;;;;;6.80;6.80;;;;;30.81;47.64;101199.09;6286886;22;8788;-82
2021/08/25 08:37:37;;;;;;;;;6.00;6.00;;;;;30.75;47.24;101188.69;6315488;22;8862;-77
2021/08/25 08:40:36;;;;;;;;;6.20;6.20;;;;;30.76;45.80;101190.31;6284920;22;8812;-85
2021/08/25 08:43:32;;;;;;;;;7.00;7.00;;;;;30.16;47.31;101188.91;6303127;22;8818;-83
2021/08/25 08:46:27;;;;;;;;;5.00;5.00;;;;;30.35;45.67;101183.44;6305631;22;8823;-78
2021/08/25 08:49:24;;;;;;;;;5.80;5.80;;;;;30.56;46.21;101179.91;6283733;22;8847;-80
2021/08/25 08:52:21;;;;;;;;;6.00;6.00;;;;;30.55;45.13;101177.53;6304424;22;8836;-80
2021/08/25 08:55:17;;;;;;;;;5.40;5.40;;;;;30.39;45.57;101175.59;6282523;22;9518;-76
2021/08/25 08:58:12;;;;;;;;;8.20;8.20;;;;;30.39;45.37;101167.03;6304407;22;9482;-78
2021/08/25 09:01:08;;;;;;;;;5.60;5.60;;;;;30.43;43.63;101176.25;6306307;22;8781;-82
2021/08/25 09:04:31;;;;;;;;;9.00;6.40;;;;;30.62;43.64;101160.97;6285356;22;8923;-79
2021/08/25 09:07:27;;;;;;;;;6.40;6.40;;;;;30.82;43.33;101165.63;6285742;22;8785;-80
2021/08/25 09:10:25;;;;;;;;;5.80;5.80;;;;;30.61;42.09;101167.94;6305511;22;8832;-80
2021/08/25 09:13:21;;;;;;;;;4.00;4.00;;;;;30.27;42.39;101157.19;6283954;22;10347;-78
2021/08/25 09:16:34;;;;;;;;;5.60;5.60;;;;;30.36;41.94;101150.81;6303417;22;8793;-79
2021/08/25 09:19:35;;;;;;;;;5.40;5.40;;;;;30.77;40.85;101154.81;6265050;22;9495;-77
2021/08/25 09:22:31;;;;;;;;;5.60;5.60;;;;;30.66;40.77;101138.81;6282863;22;8841;-82
2021/08/25 09:25:31;;;;;;;;;4.20;4.20;;;;;30.44;41.51;101149.31;6282192;22;8781;-84
2021/08/25 09:28:29;;;;;;;;;5.00;5.00;;;;;30.76;41.20;101148.28;6301992;22;8804;-84
2021/08/25 09:31:24;;;;;;;;;5.20;5.20;;;;;31.04;40.18;101143.63;6305352;22;8839;-79
2021/08/25 09:34:28;;;;;;;;;2.60;2.60;;;;;31.32;39.41;101141.06;6305137;22;8899;-80
2021/08/25 09:37:33;;;;;;;;;4.80;4.80;;;;;31.36;38.32;101128.22;6306424;22;8785;-76
2021/08/25 09:40:32;;;;;;;;;4.40;4.40;;;;;30.86;38.49;101130.00;6305536;22;8789;-76
2021/08/25 09:43:36;;;;;;;;;4.60;4.60;;;;;31.29;37.19;101128.50;6306208;22;8892;-78
2021/08/25 09:46:31;;;;;;;;;8.00;7.00;;;;;31.51;36.86;101125.63;6305628;22;8895;-78
2021/08/25 09:49:27;;;;;;;;;9.00;7.00;;;;;31.88;37.76;101123.03;6305225;22;8765;-76
2021/08/25 09:52:33;;;;;;;;;5.80;5.80;;;;;31.72;38.74;101115.44;6305834;22;8920;-82
2021/08/25 09:55:34;;;;;;;;;5.60;5.60;;;;;30.93;36.85;101115.47;6305495;22;8827;-80
2021/08/25 09:58:30;;;;;;;;;7.00;7.00;;;;;31.67;37.59;101118.91;6305472;22;8785;-84
2021/08/25 10:01:26;;;;;;;;;7.20;7.20;;;;;31.99;36.52;101114.81;6304675;22;8777;-78
2021/08/25 10:04:21;;;;;;;;;8.00;8.00;;;;;31.54;37.04;101116.13;6304659;22;8884;-76
2021/08/25 10:07:18;;;;;;;;;4.40;4.40;;;;;31.89;37.05;101110.31;6306147;22;8893;-80
2021/08/25 10:10:17;;;;;;;;;5.00;5.00;;;;;32.28;36.27;101121.00;6285725;22;8870;-84
2021/08/25 10:13:13;;;;;;;;;6.20;6.20;;;;;31.67;35.92;101116.84;6305168;22;8833;-76
2021/08/25 10:16:13;;;;;;;;;10.40;10.40;;;;;32.44;36.31;101113.44;6305473;22;8899;-78
2021/08/25 10:19:37;;;;;;;;;6.40;6.40;;;;;31.60;35.99;101104.91;6305586;22;8831;-75
2021/08/25 10:22:47;;;;;;;;;7.00;7.00;;;;;31.54;36.90;101101.84;6284702;22;9492;-76
2021/08/25 10:25:28;;;;;;;;;8.60;7.40;;;;;31.72;36.28;101119.09;6304948;22;8793;-77
2021/08/25 10:28:17;;;;;;;;;5.80;5.80;;;;;31.87;35.36;101110.00;6306220;22;8765;-89
2021/08/25 10:31:13;;;;;;;;;5.80;5.80;;;;;32.27;36.28;101124.31;6305026;22;8796;-83
2021/08/25 10:34:14;;;;;;;;;9.60;9.60;;;;;32.30;36.06;101112.72;6304191;22;8781;-76
2021/08/25 10:37:25;;;;;;;;;5.60;5.60;;;;;32.46;35.74;101111.69;6285483;22;8824;-77
2021/08/25 10:40:08;;;;;;;;;6.80;6.80;;;;;32.82;34.82;101101.56;6294107;22;8781;-83
2021/08/25 10:43:04;;;;;;;;;7.00;7.00;;;;;32.17;35.34;101094.88;6266523;22;8793;-77
2021/08/25 10:45:47;;;;;;;;;5.60;5.60;;;;;31.71;36.03;101088.91;6285687;22;8850;-88
2021/08/25 10:48:15;;;;;;;;;7.40;7.40;;;;;31.99;34.79;101097.66;6317386;22;8839;-79
2021/08/25 10:51:28;;;;;;;;;5.20;5.20;;;;;32.23;35.10;101090.13;6307139;22;8824;-79
2021/08/25 10:54:23;;;;;;;;;7.00;7.00;;;;;32.57;33.87;101089.13;6286812;22;8781;-77
2021/08/25 10:57:23;;;;;;;;;5.60;5.60;;;;;32.65;33.95;101086.75;6307873;22;8788;-79
2021/08/25 11:00:19;;;;;;;;;6.60;6.60;;;;;32.44;33.81;101081.97;6285989;22;8777;-80
2021/08/25 11:03:02;;;;;;;;;6.60;6.60;;;;;32.86;34.08;101080.13;6283744;22;8892;-88
2021/08/25 11:05:58;;;;;;;;;6.00;6.00;;;;;33.16;33.47;101080.44;6286745;22;9475;-78
2021/08/25 11:08:43;;;;;;;;;6.20;6.20;;;;;33.13;33.42;101081.41;6286115;22;8865;-87
2021/08/25 11:11:39;;;;;;;;;7.00;7.00;;;;;32.67;33.83;101071.94;6305610;22;8877;-77
2021/08/25 11:14:47;;;;;;;;;7.60;7.60;;;;;33.05;33.31;101075.19;6307029;22;8904;-84
2021/08/25 11:17:43;;;;;;;;;6.40;6.40;;;;;32.43;32.94;101068.88;6286168;22;8812;-81
2021/08/25 11:20:39;;;;;;;;;15.00;13.80;;;;;33.24;32.60;101057.97;6306606;22;8785;-78
2021/08/25 11:23:20;;;;;;;;;6.40;6.40;;;;;33.19;32.01;101056.53;6308892;22;8799;-80
2021/08/25 11:25:53;;;;;;;;;6.80;6.80;;;;;33.14;30.82;101057.22;6317242;22;8777;-79
2021/08/25 11:28:49;;;;;;;;;7.40;7.40;;;;;33.16;32.10;101051.78;6305240;22;8793;-80
2021/08/25 11:31:50;;;;;;;;;6.40;6.40;;;;;33.59;31.58;101056.34;6307741;22;8793;-86
2021/08/25 11:34:49;;;;;;;;;8.20;8.20;;;;;33.52;32.02;101048.09;6283055;22;8866;-78
2021/08/25 11:37:30;;;;;;;;;4.80;4.80;;;;;33.70;30.60;101050.88;6315219;22;8805;-88
2021/08/25 11:40:27;;;;;;;;;7.40;7.40;;;;;34.08;29.80;101046.59;6286961;22;8831;-77
2021/08/25 11:43:24;;;;;;;;;7.40;7.40;;;;;34.13;30.08;101048.03;6306912;22;8797;-81
2021/08/25 11:46:24;;;;;;;;;6.80;6.80;;;;;33.62;29.99;101046.78;6305943;22;8797;-77
2021/08/25 11:49:21;;;;;;;;;6.60;6.60;;;;;33.85;30.33;101048.13;6286217;22;8812;-78
2021/08/25 11:52:18;;;;;;;;;7.20;7.20;;;;;33.39;30.73;101047.47;6285899;22;8777;-79
2021/08/25 11:55:15;;;;;;;;;6.40;6.40;;;;;32.80;32.25;101043.97;6285542;22;8789;-77
2021/08/25 11:58:25;;;;;;;;;6.20;6.20;;;;;32.81;31.75;101042.69;6306416;22;8809;-79
2021/08/25 12:01:24;;;;;;;;;7.40;7.40;;;;;33.35;30.69;101041.06;6306249;22;8785;-78
2021/08/25 12:03:52;;;;;;;;;7.80;7.80;;;;;33.32;30.38;101037.09;6306913;22;9506;-75
2021/08/25 12:06:22;;;;;;;;;8.60;8.60;;;;;33.62;30.69;101026.69;6316575;22;9506;-81
2021/08/25 12:09:35;;;;;;;;;8.40;8.40;;;;;33.94;30.43;101035.84;6287222;22;8803;-85
2021/08/25 12:12:46;;;;;;;;;5.00;5.00;;;;;33.53;30.33;101026.75;6288189;22;8828;-78
2021/08/25 12:15:47;;;;;;;;;4.00;4.00;;;;;33.34;30.90;101020.22;6305668;22;8811;-76
2021/08/25 12:18:52;;;;;;;;;8.00;8.00;;;;;34.06;30.68;101025.44;6305346;22;8811;-82
2021/08/25 12:21:48;;;;;;;;;8.20;8.20;;;;;33.81;29.91;101018.00;6306851;22;8893;-77
2021/08/25 12:24:54;;;;;;;;;6.20;6.20;;;;;34.36;30.50;101030.03;6270719;22;8773;-80
2021/08/25 12:27:52;;;;;;;;;6.60;6.60;;;;;34.50;28.43;101026.44;6300649;22;8874;-78
2021/08/25 12:30:44;;;;;;;;;7.20;7.20;;;;;34.75;29.56;101012.84;6322869;22;8848;-77
2021/08/25 12:33:45;;;;;;;;;7.80;7.80;;;;;34.85;28.55;101011.47;6312449;22;8777;-78
2021/08/25 12:36:55;;;;;;;;;6.80;6.80;;;;;35.26;28.36;101017.47;6304983;22;8813;-77
2021/08/25 12:39:51;;;;;;;;;6.40;6.40;;;;;34.96;27.65;101017.47;6304806;22;8820;-76
2021/08/25 12:42:48;;;;;;;;;6.00;6.00;;;;;34.91;28.27;101003.78;6303710;22;8790;-80
2021/08/25 12:45:44;;;;;;;;;7.20;7.20;;;;;35.23;27.86;100996.28;6284083;22;8797;-78
2021/08/25 12:48:39;;;;;;;;;7.80;7.80;;;;;35.23;28.72;100996.28;6304398;22;8789;-84
2021/08/25 12:51:07;;;;;;;;;7.00;7.00;;;;;35.53;27.45;100984.78;6305599;22;8761;-77
2021/08/25 12:53:36;;;;;;;;;9.80;9.80;;;;;35.86;27.78;100993.94;6289388;22;8766;-82
2021/08/25 12:56:42;;;;;;;;;6.60;6.60;;;;;35.25;27.88;100987.94;6305564;22;8851;-79
2021/08/25 12:59:24;;;;;;;;;4.80;4.80;;;;;35.58;26.97;100992.69;6306214;22;8780;-76
2021/08/25 13:01:51;;;;;;;;;6.80;6.80;;;;;35.42;26.93;100978.84;6316550;22;8804;-77
2021/08/25 13:04:48;;;;;;;;;8.40;8.40;;;;;35.22;27.27;100970.91;6284925;22;8827;-85
2021/08/25 13:07:45;;;;;;;;;8.25;8.25;;;;;35.29;28.22;100979.13;6304302;22;8784;-77
2021/08/25 13:10:40;;;;;;;;;8.00;8.00;;;;;35.30;27.55;100972.88;6304045;22;8797;-81
2021/08/25 13:13:37;;;;;;;;;6.80;6.80;;;;;34.52;28.30;100972.19;6305644;22;9304;-78
2021/08/25 13:16:58;;;;;;;;;6.80;6.80;;;;;35.37;28.39;100951.56;6304342;22;8847;-82
2021/08/25 13:19:53;;;;;;;;;8.20;8.20;;;;;35.33;28.66;100956.72;6304250;22;8801;-79
2021/08/25 13:22:50;;;;;;;;;9.00;9.00;;;;;35.62;28.39;100953.03;6305549;22;8862;-79
2021/08/25 13:25:46;;;;;;;;;6.40;6.40;;;;;34.59;28.20;100950.94;6305240;22;9513;-79
2021/08/25 13:28:41;;;;;;;;;8.00;8.00;;;;;33.90;29.34;100955.72;6266798;22;8817;-79
2021/08/25 13:31:37;;;;;;;;;7.60;7.60;;;;;33.98;30.51;100947.53;6304404;22;8800;-80
2021/08/25 13:34:32;;;;;;;;;7.00;7.00;;;;;34.46;28.27;100936.81;6305116;22;8785;-81
2021/08/25 13:37:28;;;;;;;;;10.40;8.80;;;;;34.76;27.26;100937.66;6305270;22;8776;-80
2021/08/25 13:40:24;;;;;;;;;6.40;6.40;;;;;35.12;28.47;100938.63;6304896;22;8807;-79
2021/08/25 13:43:19;;;;;;;;;6.80;6.80;;;;;34.89;27.02;100937.41;6305428;22;8773;-80
2021/08/25 13:46:15;;;;;;;;;8.00;8.00;;;;;35.30;27.77;100932.63;6305237;22;8799;-79
2021/08/25 13:49:11;;;;;;;;;7.00;7.00;;;;;35.25;26.45;100927.56;6305901;22;8875;-78
2021/08/25 13:52:08;;;;;;;;;6.00;6.00;;;;;35.29;27.37;100925.31;6304990;22;8793;-78
2021/08/25 13:55:05;;;;;;;;;7.20;7.20;;;;;35.16;27.89;100921.16;6305332;22;8799;-78
2021/08/25 13:57:34;;;;;;;;;6.80;6.80;;;;;35.23;28.36;100926.50;6316052;22;8761;-78
2021/08/25 14:00:30;;;;;;;;;5.60;5.60;;;;;34.19;28.72;100920.56;6305981;22;8811;-78
2021/08/25 14:03:22;;;;;;;;;5.60;5.60;;;;;34.52;28.61;100917.63;6304273;22;8813;-80
2021/08/25 14:06:18;;;;;;;;;6.00;6.00;;;;;34.09;29.10;100915.41;6283384;22;8797;-79
2021/08/25 14:09:14;;;;;;;;;7.00;7.00;;;;;34.11;30.69;100919.38;6304981;22;8803;-81
2021/08/25 14:12:10;;;;;;;;;8.00;8.00;;;;;34.29;30.01;100913.50;6307209;22;8874;-79
2021/08/25 14:15:07;;;;;;;;;6.40;6.40;;;;;34.07;29.75;100923.72;6286383;22;8797;-79
2021/08/25 14:18:03;;;;;;;;;8.20;8.20;;;;;33.72;30.70;100915.59;6306914;22;9593;-77
2021/08/25 14:20:58;;;;;;;;;6.00;6.00;;;;;33.47;30.86;100911.13;6307288;22;8785;-79
2021/08/25 14:23:54;;;;;;;;;7.80;7.80;;;;;32.98;30.37;100917.19;6306271;22;8777;-79
2021/08/25 14:26:35;;;;;;;;;5.20;5.20;;;;;32.54;31.67;100914.66;6306762;22;9505;-80
2021/08/25 14:29:21;;;;;;;;;4.40;4.40;;;;;32.24;31.84;100917.16;6308122;22;8797;-80
2021/08/25 14:32:17;;;;;;;;;6.00;6.00;;;;;32.43;31.43;100911.47;6306233;22;8765;-79
2021/08/25 14:35:12;;;;;;;;;7.00;7.00;;;;;32.05;32.23;100907.78;6306625;22;8796;-78
2021/08/25 14:37:41;;;;;;;;;8.00;8.00;;;;;32.13;32.48;100902.56;6315769;22;8858;-79
2021/08/25 14:40:36;;;;;;;;;6.80;6.80;;;;;32.51;32.92;100898.44;6286576;22;8789;-78
2021/08/25 14:43:32;;;;;;;;;5.00;5.00;;;;;32.17;32.24;100905.25;6306831;22;8781;-78
2021/08/25 14:46:28;;;;;;;;;5.60;5.60;;;;;31.91;33.08;100901.88;6306976;22;8785;-78
2021/08/25 14:49:25;;;;;;;;;4.40;4.40;;;;;31.63;33.58;100904.66;6306982;22;8857;-79
2021/08/25 14:52:20;;;;;;;;;7.40;7.40;;;;;31.46;34.05;100901.25;6286296;22;8812;-78
2021/08/25 14:54:48;;;;;;;;;10.00;10.00;;;;;31.60;34.88;100904.81;6315943;22;8946;-78
2021/08/25 14:57:44;;;;;;;;;6.00;6.00;;;;;31.59;34.69;100903.19;6306419;22;9609;-78
2021/08/25 15:00:39;;;;;;;;;5.00;5.00;;;;;31.37;33.72;100900.44;6306382;22;8801;-77
2021/08/25 15:03:37;;;;;;;;;7.40;7.40;;;;;31.19;34.23;100904.75;6305275;22;8809;-77
2021/08/25 15:06:18;;;;;;;;;8.80;8.80;;;;;31.26;34.19;100898.78;6291983;22;8777;-78
2021/08/25 15:09:13;;;;;;;;;10.00;9.40;;;;;31.32;34.66;100895.31;6285962;22;8859;-77
2021/08/25 15:12:09;;;;;;;;;5.40;5.40;;;;;30.64;35.59;100895.84;6275478;22;8791;-78
2021/08/25 15:15:06;;;;;;;;;8.80;8.80;;;;;30.77;36.22;100901.50;6275482;22;8787;-78
2021/08/25 15:18:02;;;;;;;;;6.20;6.20;;;;;30.93;36.24;100891.94;6274809;22;8841;-77
2021/08/25 15:20:57;;;;;;;;;5.40;5.40;;;;;30.72;36.23;100893.53;6274972;22;8852;-77
2021/08/25 15:23:38;;;;;;;;;7.00;7.00;;;;;30.64;36.29;100897.91;6276157;22;8779;-75
2021/08/25 15:26:34;;;;;;;;;8.00;8.00;;;;;30.73;36.81;100897.97;6255325;22;8783;-75
2021/08/25 15:29:30;;;;;;;;;6.40;6.40;;;;;30.52;37.63;100896.72;6274985;22;8779;-75
2021/08/25 15:32:11;;;;;;;;;8.20;8.20;;;;;30.54;38.09;100894.19;6284153;22;8779;-75
2021/08/25 15:35:08;;;;;;;;;7.00;7.00;;;;;30.42;39.08;100886.47;6275381;22;8865;-74
2021/08/25 15:38:04;;;;;;;;;6.00;6.00;;;;;30.06;37.31;100890.59;6274880;22;8807;-75
2021/08/25 15:41:06;;;;;;;;;9.40;9.40;;;;;29.93;36.77;100883.31;6275305;22;8783;-75
2021/08/25 15:44:02;;;;;;;;;7.60;7.60;;;;;29.80;36.12;100889.06;6276717;22;8865;-76
2021/08/25 15:46:57;;;;;;;;;6.80;6.80;;;;;29.84;35.56;100884.84;6254949;22;8961;-76
2021/08/25 15:49:53;;;;;;;;;8.60;8.60;;;;;29.84;35.62;100881.19;6274975;22;8965;-74
2021/08/25 15:52:48;;;;;;;;;7.80;7.80;;;;;29.94;36.06;100884.91;6275230;22;8795;-75
2021/08/25 15:55:44;;;;;;;;;11.00;11.00;;;;;29.92;37.18;100882.53;6275362;22;8767;-75
2021/08/25 15:58:39;;;;;;;;;9.00;9.00;;;;;29.70;37.11;100893.88;6275200;22;8842;-76
2021/08/25 16:01:35;;;;;;;;;10.80;10.80;;;;;29.57;37.39;100891.03;6274949;22;8884;-75
2021/08/25 16:04:30;;;;;;;;;9.00;9.00;;;;;29.55;37.77;100881.34;6274149;22;8803;-75
2021/08/25 16:07:26;;;;;;;;;8.40;8.40;;;;;29.53;38.88;100883.88;6274724;22;8775;-75
2021/08/25 16:10:21;;;;;;;;;9.60;9.60;;;;;29.41;40.44;100876.09;6274676;22;9534;-75
2021/08/25 16:13:19;;;;;;;;;10.40;10.40;;;;;29.40;41.79;100880.19;6254790;22;8911;-75
2021/08/25 16:16:15;;;;;;;;;8.60;8.60;;;;;29.35;41.86;100884.41;6254724;22;8822;-75
2021/08/25 16:19:12;;;;;;;;;9.60;9.60;;;;;29.22;43.05;100890.09;6274178;22;9469;-75
2021/08/25 16:22:09;;;;;;;;;12.60;12.60;;;;;29.12;44.54;100885.53;6275329;22;8807;-75
2021/08/25 16:25:05;;;;;;;;;16.40;16.40;;;;;29.12;43.70;100884.72;6254361;22;8845;-74
2021/08/25 16:28:02;;;;;;;;;9.00;9.00;;;;;28.96;43.09;100883.56;6274627;22;8799;-75
2021/08/25 16:30:58;;;;;;;;;12.00;12.00;;;;;28.86;42.01;100886.72;6274856;22;9505;-74
2021/08/25 16:33:54;;;;;;;;;13.20;13.20;;;;;28.94;41.70;100874.69;6274028;22;8791;-74
2021/08/25 16:36:49;;;;;;;;;9.00;9.00;;;;;28.98;41.93;100880.28;6274444;22;8837;-74
2021/08/25 16:39:35;;;;;;;;;12.20;12.20;;;;;28.85;42.95;100890.84;6254115;22;8827;-74
2021/08/25 16:42:34;;;;;;;;;16.60;16.60;;;;;28.73;43.70;100898.88;6253835;22;8876;-75
2021/08/25 16:45:30;;;;;;;;;12.60;12.20;;;;;28.64;43.81;100897.94;6274283;22;8865;-74
2021/08/25 16:48:25;;;;;;;;;10.20;9.60;;;;;28.53;44.85;100892.56;6275297;22;8807;-75
2021/08/25 16:51:21;;;;;;;;;9.00;9.00;;;;;28.50;45.92;100894.25;6274669;22;8791;-74
2021/08/25 16:54:18;;;;;;;;;19.20;18.60;;;;;28.45;46.50;100891.97;6274453;22;9632;-74
2021/08/25 16:57:13;;;;;;;;;20.40;17.60;;;;;28.34;46.37;100900.00;6274523;22;8767;-74
2021/08/25 17:00:11;;;;;;;;;14.20;14.20;;;;;28.26;44.95;100898.56;6274142;22;8795;-75
2021/08/25 17:03:07;;;;;;;;;20.40;18.80;;;;;28.19;45.16;100910.13;6273909;22;8799;-73
2021/08/25 17:06:03;;;;;;;;;13.20;13.20;;;;;28.21;47.47;100911.25;6274391;22;8823;-73
2021/08/25 17:08:58;;;;;;;;;17.20;17.20;;;;;28.12;48.58;100911.13;6273221;22;8787;-73
2021/08/25 17:11:54;;;;;;;;;22.40;20.60;;;;;27.99;46.13;100907.44;6304322;22;8845;-73
2021/08/25 17:14:50;;;;;;;;;13.40;13.40;;;;;28.00;47.17;100917.53;6304855;22;9475;-74
2021/08/25 17:17:18;;;;;;;;;12.00;12.00;;;;;28.04;49.31;100908.91;6315726;22;8765;-74
2021/08/25 17:19:51;;;;;;;;;12.40;12.40;;;;;28.06;47.83;100914.94;6315264;22;8761;-74
2021/08/25 17:22:22;;;;;;;;;16.00;16.00;;;;;28.02;44.88;100914.25;6315684;22;9560;-74
2021/08/25 17:25:18;;;;;;;;;14.60;14.60;;;;;27.84;42.57;100918.34;6306189;22;8864;-73
2021/08/25 17:28:19;;;;;;;;;15.00;15.00;;;;;27.76;44.55;100925.47;6304734;22;8869;-73
2021/08/25 17:31:01;;;;;;;;;17.80;17.80;;;;;27.61;44.51;100924.97;6305864;22;8817;-74
2021/08/25 17:33:57;;;;;;;;;15.40;15.40;;;;;27.67;47.23;100928.09;6304748;22;8773;-73
2021/08/25 17:36:25;;;;;;;;;17.00;16.40;;;;;27.54;46.76;100924.34;6315226;22;8777;-74
2021/08/25 17:39:21;;;;;;;;;15.20;15.20;;;;;27.40;46.16;100931.97;6305977;22;8781;-74
2021/08/25 17:42:17;;;;;;;;;15.60;15.60;;;;;27.33;46.70;100929.28;6284301;22;8868;-75
2021/08/25 17:45:13;;;;;;;;;15.00;15.00;;;;;27.34;48.07;100927.25;6304753;22;8834;-74
2021/08/25 17:48:10;;;;;;;;;15.60;15.60;;;;;27.28;50.41;100929.78;6304980;22;8769;-73
2021/08/25 17:51:08;;;;;;;;;19.80;19.80;;;;;27.15;47.38;100926.06;6306058;22;8780;-73
2021/08/25 17:54:04;;;;;;;;;20.60;20.60;;;;;27.15;47.97;100926.06;6305258;22;8794;-73
2021/08/25 17:56:59;;;;;;;;;16.60;16.60;;;;;27.01;48.75;100926.34;6305387;22;8773;-73
2021/08/25 17:59:55;;;;;;;;;18.20;18.20;;;;;26.94;49.44;100932.97;6305101;22;8789;-74
2021/08/25 18:02:23;;;;;;;;;17.00;17.00;;;;;26.92;49.14;100937.47;6315797;22;8780;-74
2021/08/25 18:05:19;;;;;;;;;22.20;22.20;;;;;26.77;46.76;100934.94;6305130;22;8807;-73
2021/08/25 18:08:14;;;;;;;;;27.00;27.00;;;;;26.55;48.60;100931.72;6304646;22;8781;-73
2021/08/25 18:11:12;;;;;;;;;21.20;18.40;;;;;26.62;52.43;100927.94;6305016;22;8870;-73
2021/08/25 18:14:07;;;;;;;;;24.80;24.80;;;;;26.65;49.81;100929.91;6305223;22;8875;-73
2021/08/25 18:17:03;;;;;;;;;25.80;25.80;;;;;26.54;49.92;100935.00;6305216;22;8813;-73
2021/08/25 18:19:31;;;;;;;;;26.80;25.80;;;;;26.41;49.38;100934.03;6278578;22;8840;-73
2021/08/25 18:22:27;;;;;;;;;21.60;21.60;;;;;26.30;48.76;100940.69;6284760;22;8895;-73
2021/08/25 18:25:23;;;;;;;;;24.20;24.20;;;;;26.33;49.25;100939.81;6305060;22;8808;-73
2021/08/25 18:28:19;;;;;;;;;29.20;29.00;;;;;26.29;48.78;100938.25;6304749;22;9606;-74
2021/08/25 18:31:15;;;;;;;;;27.60;27.60;;;;;26.30;47.95;100937.03;6305200;22;8877;-73
2021/08/25 18:34:10;;;;;;;;;23.00;23.00;;;;;26.34;46.00;100941.41;6305044;22;8817;-73
2021/08/25 18:37:06;;;;;;;;;25.80;25.80;;;;;26.33;45.85;100925.63;6304995;22;8785;-73
2021/08/25 18:40:03;;;;;;;;;15.80;14.80;;;;;26.43;45.48;100923.06;6304899;22;8797;-74
2021/08/25 18:42:58;;;;;;;;;23.60;23.60;;;;;26.48;45.95;100917.69;6305123;22;8773;-74
2021/08/25 18:45:54;;;;;;;;;20.80;20.80;;;;;26.48;42.82;100916.88;6284631;22;8796;-73
2021/08/25 18:48:49;;;;;;;;;24.00;24.00;;;;;26.53;45.62;100917.19;6304863;22;8781;-73
2021/08/25 18:51:45;;;;;;;;;21.60;20.80;;;;;26.55;43.93;100911.06;6304933;22;8805;-74
2021/08/25 18:54:41;;;;;;;;;16.20;16.20;;;;;26.60;44.45;100917.03;6305829;22;8785;-73
2021/08/25 18:57:36;;;;;;;;;23.60;23.40;;;;;26.55;42.35;100916.75;6305282;22;8777;-73
2021/08/25 19:00:32;;;;;;;;;22.20;22.20;;;;;26.55;44.02;100916.75;6306790;22;8781;-74
2021/08/25 19:03:27;;;;;;;;;18.60;18.60;;;;;26.54;46.19;100915.94;6306689;22;8799;-74
2021/08/25 19:06:23;;;;;;;;;20.20;19.80;;;;;26.41;42.30;100911.34;6306659;22;8817;-73
2021/08/25 19:08:52;;;;;;;;;19.20;19.20;;;;;26.46;44.55;100908.03;6315747;22;8777;-73
2021/08/25 19:11:48;;;;;;;;;18.80;18.80;;;;;26.41;45.21;100905.69;6286242;22;8808;-73
2021/08/25 19:14:44;;;;;;;;;18.80;18.80;;;;;26.49;43.46;100915.66;6307919;22;8782;-74
2021/08/25 19:17:39;;;;;;;;;20.40;20.40;;;;;26.48;44.80;100919.72;6306852;22;8784;-75
2021/08/25 19:20:35;;;;;;;;;17.20;17.20;;;;;26.51;45.04;100916.81;6306288;22;8777;-74
2021/08/25 19:23:30;;;;;;;;;18.60;18.20;;;;;26.48;46.11;100916.88;6286312;22;8772;-74
2021/08/25 19:25:59;;;;;;;;;18.00;18.00;;;;;26.37;45.75;100916.25;6290514;22;8769;-73
2021/08/25 19:28:54;;;;;;;;;17.20;17.20;;;;;26.42;47.68;100919.41;6287014;22;8796;-73
2021/08/25 19:31:50;;;;;;;;;22.60;22.00;;;;;26.36;45.97;100915.44;6286272;22;8791;-73
2021/08/25 19:34:45;;;;;;;;;21.00;18.40;;;;;26.32;48.66;100920.41;6306541;22;8793;-73
2021/08/25 19:37:13;;;;;;;;;19.00;19.00;;;;;26.29;47.60;100918.41;6316751;22;8801;-73
2021/08/25 19:39:41;;;;;;;;;18.20;18.20;;;;;26.14;46.45;100920.72;6316865;22;8899;-74
2021/08/25 19:42:36;;;;;;;;;20.80;20.80;;;;;26.00;47.65;100918.97;6306261;22;8869;-73
2021/08/25 19:45:32;;;;;;;;;20.60;20.60;;;;;25.88;47.72;100915.94;6285859;22;8792;-74
2021/08/25 19:48:28;;;;;;;;;19.40;19.40;;;;;25.76;48.77;100914.50;6305038;22;8800;-74
2021/08/25 19:51:23;;;;;;;;;20.80;19.80;;;;;25.92;50.29;100908.97;6306063;22;8833;-74
2021/08/25 19:54:19;;;;;;;;;20.40;20.40;;;;;25.81;48.79;100913.22;6306302;22;8789;-74
2021/08/25 19:57:14;;;;;;;;;25.00;23.40;;;;;25.76;50.24;100917.31;6306177;22;8773;-74
2021/08/25 20:00:10;;;;;;;;;20.40;20.40;;;;;25.65;49.92;100917.47;6306117;22;8797;-74
2021/08/25 20:03:06;;;;;;;;;26.20;26.20;;;;;25.39;51.15;100924.78;6285798;22;8855;-73
2021/08/25 20:06:01;;;;;;;;;19.80;19.80;;;;;25.40;52.89;100925.56;6305998;22;8773;-73
2021/08/25 20:08:57;;;;;;;;;21.60;21.60;;;;;25.40;54.50;100922.75;6307024;22;8842;-74
2021/08/25 20:11:25;;;;;;;;;25.80;25.80;;;;;25.38;53.95;100925.16;6310023;22;8770;-74
2021/08/25 20:14:20;;;;;;;;;24.20;24.20;;;;;25.35;54.36;100926.03;6306113;22;9456;-75
2021/08/25 20:16:49;;;;;;;;;19.20;19.20;;;;;25.45;54.40;100925.06;6314927;22;8787;-74
2021/08/25 20:19:17;;;;;;;;;24.80;24.80;;;;;25.35;52.76;100921.19;6289520;22;8793;-74
2021/08/25 20:22:13;;;;;;;;;23.20;23.20;;;;;25.27;54.00;100921.72;6306704;22;8784;-75
2021/08/25 20:25:09;;;;;;;;;22.40;22.00;;;;;25.03;51.47;100918.81;6306197;22;8765;-75
2021/08/25 20:27:43;;;;;;;;;22.80;22.80;;;;;24.75;52.45;100914.28;6290620;22;8800;-75
2021/08/25 20:30:11;;;;;;;;;22.60;22.60;;;;;24.68;54.31;100914.34;6307090;22;8777;-74
2021/08/25 20:33:06;;;;;;;;;23.60;23.60;;;;;24.35;53.84;100911.09;6305754;22;8765;-73
2021/08/25 20:36:02;;;;;;;;;19.00;18.40;;;;;24.48;54.38;100919.06;6306790;22;8805;-73
2021/08/25 20:39:00;;;;;;;;;23.00;22.00;;;;;24.59;56.48;100922.56;6305255;22;8785;-74